Time;durP1;ratioP1;P1;durP2;ratioP2;P2;SDS_P1;SDS_P2;PMS_P1;PMS_P2;Temp;Humidity;BMP_temperature;BMP_pressure;BME280_temperature;BME280_humidity;BME280_pressure;Samples;Min_cycle;Max_cycle;Signal;HPM_P1;HPM_P2
2021/04/10 00:01:19;;;;;;;1999.90;999.90;;;;;;;11.14;42.35;98145.69;5003912;28;20100;-66
2021/04/10 00:03:45;;;;;;;1999.90;999.90;;;;;;;10.83;42.97;98155.13;5003036;28;20057;-66
2021/04/10 00:06:12;;;;;;;1999.90;999.90;;;;;;;10.54;44.00;98147.59;5006445;28;20057;-66
2021/04/10 00:08:38;;;;;;;1999.90;999.90;;;;;;;10.54;44.01;98144.84;5006708;28;20469;-66
2021/04/10 00:11:04;;;;;;;1999.90;999.90;;;;;;;10.37;44.24;98135.44;5014058;28;20061;-66
2021/04/10 00:13:31;;;;;;;1999.90;999.90;;;;;;;10.36;44.22;98135.75;5004521;28;20049;-66
2021/04/10 00:15:57;;;;;;;1999.90;999.90;;;;;;;10.67;43.89;98141.03;5008231;28;20459;-66
2021/04/10 00:18:23;;;;;;;1999.90;999.90;;;;;;;10.43;44.61;98140.78;5003640;28;20053;-66
2021/04/10 00:20:49;;;;;;;1999.90;999.90;;;;;;;10.08;45.57;98143.59;5006839;28;20669;-66
2021/04/10 00:23:16;;;;;;;1999.90;999.90;;;;;;;9.86;46.33;98139.91;5007843;28;20442;-66
2021/04/10 00:25:42;;;;;;;1999.90;999.90;;;;;;;10.10;45.84;98141.34;5003408;28;20116;-66
2021/04/10 00:28:08;;;;;;;1999.90;999.90;;;;;;;9.86;46.23;98143.47;5006186;28;20541;-66
2021/04/10 00:30:34;;;;;;;1999.90;999.90;;;;;;;9.81;46.64;98142.81;5007933;28;20417;-66
2021/04/10 00:33:01;;;;;;;1999.90;999.90;;;;;;;9.92;46.46;98140.53;5011679;28;20054;-66
2021/04/10 00:35:29;;;;;;;1999.90;999.90;;;;;;;9.89;46.61;98138.44;5001811;28;20533;-65
2021/04/10 00:37:58;;;;;;;1999.90;999.90;;;;;;;9.77;46.93;98142.66;5003294;28;20045;-66
2021/04/10 00:40:24;;;;;;;1999.90;999.90;;;;;;;9.67;47.47;98138.25;5005202;28;20045;-65
2021/04/10 00:42:52;;;;;;;1999.90;999.90;;;;;;;9.72;47.30;98145.59;5009114;28;20081;-66
2021/04/10 00:45:20;;;;;;;1999.90;999.90;;;;;;;9.98;47.15;98140.03;5003667;28;20050;-65
2021/04/10 00:47:46;;;;;;;1999.90;999.90;;;;;;;10.12;46.69;98141.81;5006222;28;20041;-66
2021/04/10 00:50:13;;;;;;;1999.90;999.90;;;;;;;10.23;46.20;98130.09;5011257;28;20425;-65
2021/04/10 00:52:40;;;;;;;1999.90;999.90;;;;;;;9.97;46.87;98141.16;5036441;28;20054;-66
2021/04/10 00:55:09;;;;;;;1999.90;999.90;;;;;;;9.75;47.74;98133.91;5005564;28;20050;-66
2021/04/10 00:57:35;;;;;;;1999.90;999.90;;;;;;;9.24;49.12;98138.22;5003261;28;20486;-66
2021/04/10 01:00:04;;;;;;;1999.90;999.90;;;;;;;9.18;49.22;98147.81;5021855;28;20053;-66
2021/04/10 01:02:30;;;;;;;1999.90;999.90;;;;;;;8.93;49.84;98136.38;5005260;28;20053;-65
2021/04/10 01:04:56;;;;;;;1999.90;999.90;;;;;;;8.98;50.17;98142.56;5008138;28;20046;-66
2021/04/10 01:07:22;;;;;;;1999.90;999.90;;;;;;;9.09;49.61;98145.81;5007378;28;20053;-65
2021/04/10 01:09:52;;;;;;;1999.90;999.90;;;;;;;9.06;49.88;98145.66;5005693;28;20061;-66
2021/04/10 01:12:49;;;;;;;1999.90;999.90;;;;;;;8.85;50.77;98139.94;5008848;28;20484;-66
2021/04/10 01:15:22;;;;;;;1999.90;999.90;;;;;;;8.74;50.72;98142.97;5006392;28;20433;-66
2021/04/10 01:17:54;;;;;;;1999.90;999.90;;;;;;;8.87;50.71;98143.16;5010188;28;20132;-66
2021/04/10 01:20:39;;;;;;;1999.90;999.90;;;;;;;9.03;50.32;98143.53;5006376;28;20060;-66
2021/04/10 01:23:24;;;;;;;1999.90;999.90;;;;;;;9.13;49.91;98138.53;5003727;28;20077;-66
2021/04/10 01:26:10;;;;;;;1999.90;999.90;;;;;;;9.10;50.48;98141.13;5001658;28;20725;-66
2021/04/10 01:28:51;;;;;;;1999.90;999.90;;;;;;;9.27;50.21;98135.63;5004044;28;20196;-66
2021/04/10 01:31:21;;;;;;;1999.90;999.90;;;;;;;9.32;49.96;98137.44;5007084;28;20050;-65
2021/04/10 01:33:52;;;;;;;1999.90;999.90;;;;;;;9.35;49.80;98131.28;5006951;28;20053;-66
2021/04/10 01:36:23;;;;;;;1999.90;999.90;;;;;;;9.41;49.78;98135.50;5012250;28;20042;-66
2021/04/10 01:38:52;;;;;;;1999.90;999.90;;;;;;;9.28;50.18;98128.19;5006055;28;20056;-66
2021/04/10 01:41:19;;;;;;;1999.90;999.90;;;;;;;9.35;50.03;98128.53;5006878;28;20123;-66
2021/04/10 01:43:47;;;;;;;1999.90;999.90;;;;;;;9.13;50.53;98129.47;5003623;28;20042;-64
2021/04/10 01:46:15;;;;;;;1999.90;999.90;;;;;;;9.24;50.25;98124.44;5003723;28;20038;-64
2021/04/10 01:48:45;;;;;;;1999.90;999.90;;;;;;;9.31;50.20;98119.25;5010530;28;20053;-64
2021/04/10 01:51:11;;;;;;;1999.90;999.90;;;;;;;9.14;50.63;98109.81;5004771;28;20447;-63
2021/04/10 01:53:39;;;;;;;1999.90;999.90;;;;;;;8.88;51.36;98118.03;5011956;28;20489;-64
2021/04/10 01:56:06;;;;;;;1999.90;999.90;;;;;;;9.05;51.35;98110.94;5004593;28;20493;-64
2021/04/10 01:58:35;;;;;;;1999.90;999.90;;;;;;;8.54;52.39;98110.47;5029631;28;20056;-64
2021/04/10 02:01:02;;;;;;;1999.90;999.90;;;;;;;8.72;51.89;98114.09;5007003;28;20049;-65
2021/04/10 02:03:29;;;;;;;1999.90;999.90;;;;;;;8.81;52.16;98112.16;5007939;28;20501;-66
2021/04/10 02:05:56;;;;;;;1999.90;999.90;;;;;;;8.76;52.10;98115.09;5008958;28;20211;-66
2021/04/10 02:08:25;;;;;;;1999.90;999.90;;;;;;;8.84;52.15;98116.25;5003724;28;20100;-66
2021/04/10 02:10:53;;;;;;;1999.90;999.90;;;;;;;8.81;52.34;98107.47;5006500;28;20050;-66
2021/04/10 02:13:19;;;;;;;1999.90;999.90;;;;;;;9.00;52.09;98109.13;5002956;28;20172;-66
2021/04/10 02:15:50;;;;;;;1999.90;999.90;;;;;;;8.98;51.99;98111.41;5006570;28;20046;-66
2021/04/10 02:18:21;;;;;;;1999.90;999.90;;;;;;;9.11;51.72;98104.97;5005237;28;20049;-66
2021/04/10 02:20:47;;;;;;;1999.90;999.90;;;;;;;9.16;51.40;98107.53;5004936;28;20541;-66
2021/04/10 02:23:14;;;;;;;1999.90;999.90;;;;;;;8.91;52.54;98113.81;5004968;28;20053;-66
2021/04/10 02:25:41;;;;;;;1999.90;999.90;;;;;;;9.25;51.57;98104.00;5005425;28;20129;-66
2021/04/10 02:28:08;;;;;;;1999.90;999.90;;;;;;;9.39;51.10;98098.31;5003821;28;20054;-66
2021/04/10 02:30:34;;;;;;;1999.90;999.90;;;;;;;9.43;50.58;98107.59;5006763;28;20049;-66
2021/04/10 02:33:04;;;;;;;1999.90;999.90;;;;;;;9.69;50.65;98111.16;5008882;28;20112;-66
2021/04/10 02:35:39;;;;;;;1999.90;999.90;;;;;;;9.77;50.25;98092.94;5003127;28;20467;-66
2021/04/10 02:38:07;;;;;;;1999.90;999.90;;;;;;;9.93;50.02;98095.19;5005879;28;20100;-66
2021/04/10 02:40:37;;;;;;;1999.90;999.90;;;;;;;9.64;50.24;98107.75;5005800;28;20045;-66
2021/04/10 02:43:10;;;;;;;1999.90;999.90;;;;;;;9.25;51.46;98106.75;5014405;28;20065;-66
2021/04/10 02:45:37;;;;;;;1999.90;999.90;;;;;;;9.32;51.44;98109.84;5003762;28;20490;-66
2021/04/10 02:48:12;;;;;;;1999.90;999.90;;;;;;;9.14;52.04;98107.06;5002264;28;20054;-66
2021/04/10 02:50:39;;;;;;;1999.90;999.90;;;;;;;9.20;51.71;98102.22;5006368;28;20119;-66
2021/04/10 02:53:07;;;;;;;1999.90;999.90;;;;;;;9.12;52.13;98101.03;5001839;28;20300;-66
2021/04/10 02:55:37;;;;;;;1999.90;999.90;;;;;;;9.11;52.28;98104.97;5008803;28;20041;-66
2021/04/10 02:58:07;;;;;;;1999.90;999.90;;;;;;;8.95;52.49;98101.84;5007191;28;20521;-66
2021/04/10 03:00:35;;;;;;;1999.90;999.90;;;;;;;8.86;53.08;98108.44;5008479;28;20053;-65
2021/04/10 03:03:03;;;;;;;1999.90;999.90;;;;;;;8.40;54.35;98108.59;5009656;28;20057;-66
2021/04/10 03:05:30;;;;;;;1999.90;999.90;;;;;;;8.53;54.11;98104.16;5010577;28;20069;-65
2021/04/10 03:07:57;;;;;;;1999.90;999.90;;;;;;;9.00;52.89;98098.09;5009999;28;20054;-65
2021/04/10 03:10:23;;;;;;;1999.90;999.90;;;;;;;9.05;53.07;98100.72;5008976;28;20750;-66
2021/04/10 03:12:52;;;;;;;1999.90;999.90;;;;;;;8.89;53.45;98102.31;5009082;28;20046;-65
2021/04/10 03:15:19;;;;;;;1999.90;999.90;;;;;;;8.93;53.53;98098.59;5006702;28;20045;-64
2021/04/10 03:17:47;;;;;;;1999.90;999.90;;;;;;;9.10;52.93;98089.53;5010292;28;20053;-64
2021/04/10 03:20:15;;;;;;;1999.90;999.90;;;;;;;9.03;52.97;98094.69;5007350;28;20085;-64
2021/04/10 03:22:46;;;;;;;1999.90;999.90;;;;;;;9.11;52.67;98093.91;5007272;28;20050;-65
2021/04/10 03:25:14;;;;;;;1999.90;999.90;;;;;;;9.22;52.84;98099.13;5007025;28;20049;-65
2021/04/10 03:27:41;;;;;;;1999.90;999.90;;;;;;;9.39;52.23;98098.31;5010840;28;20197;-66
2021/04/10 03:30:10;;;;;;;1999.90;999.90;;;;;;;9.33;52.24;98092.16;5002768;28;20050;-65
2021/04/10 03:32:37;;;;;;;1999.90;999.90;;;;;;;9.57;51.53;98096.38;5009496;28;20045;-66
2021/04/10 03:35:04;;;;;;;1999.90;999.90;;;;;;;9.72;50.81;98104.19;5009821;28;20061;-66
2021/04/10 03:37:31;;;;;;;1999.90;999.90;;;;;;;9.72;50.81;98100.59;5008314;28;20049;-66
2021/04/10 03:39:58;;;;;;;1999.90;999.90;;;;;;;9.54;51.21;98099.78;5007842;28;20049;-64
2021/04/10 03:42:39;;;;;;;1999.90;999.90;;;;;;;9.26;51.80;98094.56;5006959;28;20103;-64
2021/04/10 03:45:10;;;;;;;1999.90;999.90;;;;;;;9.32;51.41;98109.84;5008088;28;20054;-64
2021/04/10 03:47:52;;;;;;;1999.90;999.90;;;;;;;9.13;51.94;98099.91;5004543;28;20153;-64
2021/04/10 03:50:19;;;;;;;1999.90;999.90;;;;;;;8.89;52.28;98105.06;5012117;28;20081;-64
2021/04/10 03:52:45;;;;;;;1999.90;999.90;;;;;;;8.91;52.60;98105.56;5008453;28;20073;-64
2021/04/10 03:55:12;;;;;;;1999.90;999.90;;;;;;;8.76;53.16;98104.84;5008854;28;20037;-63
2021/04/10 03:57:38;;;;;;;1999.90;999.90;;;;;;;8.89;52.83;98099.56;5005916;28;20054;-64
2021/04/10 04:00:05;;;;;;;1999.90;999.90;;;;;;;8.67;53.71;98100.47;5014225;28;20500;-64
2021/04/10 04:02:32;;;;;;;1999.90;999.90;;;;;;;8.78;53.58;98099.84;5007791;28;20099;-64
2021/04/10 04:04:58;;;;;;;1999.90;999.90;;;;;;;8.80;53.57;98110.56;5008421;28;20054;-64
2021/04/10 04:07:24;;;;;;;1999.90;999.90;;;;;;;8.81;53.56;98112.16;5012496;28;20096;-65
2021/04/10 04:09:50;;;;;;;1999.90;999.90;;;;;;;8.69;53.89;98104.50;5004962;28;20518;-64
2021/04/10 04:12:17;;;;;;;1999.90;999.90;;;;;;;8.61;54.40;98108.06;5014878;28;20066;-64
2021/04/10 04:14:43;;;;;;;1999.90;999.90;;;;;;;8.69;54.04;98107.25;5006634;28;20045;-65
2021/04/10 04:17:09;;;;;;;1999.90;999.90;;;;;;;8.56;55.05;98105.44;5015913;28;20108;-65
2021/04/10 04:19:35;;;;;;;1999.90;999.90;;;;;;;8.68;54.76;98107.59;5008687;28;20096;-64
2021/04/10 04:22:03;;;;;;;1999.90;999.90;;;;;;;8.58;55.01;98108.69;5006642;28;20094;-64
2021/04/10 04:24:29;;;;;;;1999.90;999.90;;;;;;;8.70;54.75;98114.41;5009314;28;20128;-64
2021/04/10 04:26:56;;;;;;;1999.90;999.90;;;;;;;8.62;54.89;98112.44;5003112;28;20037;-64
2021/04/10 04:29:22;;;;;;;1999.90;999.90;;;;;;;8.55;54.94;98112.91;5014901;28;20049;-64
2021/04/10 04:31:49;;;;;;;1999.90;999.90;;;;;;;8.64;54.79;98113.72;5003760;28;20045;-64
2021/04/10 04:34:15;;;;;;;1999.90;999.90;;;;;;;8.52;55.09;98109.97;5035759;28;20409;-65
2021/04/10 04:36:41;;;;;;;1999.90;999.90;;;;;;;8.57;55.45;98118.09;5006340;28;20042;-65
2021/04/10 04:39:07;;;;;;;1999.90;999.90;;;;;;;8.60;55.32;98117.44;5007846;28;20050;-66
2021/04/10 04:41:33;;;;;;;1999.90;999.90;;;;;;;8.78;54.79;98121.06;5005269;28;20572;-66
2021/04/10 04:43:59;;;;;;;1999.90;999.90;;;;;;;8.95;54.46;98123.09;5009773;28;20054;-66
2021/04/10 04:46:26;;;;;;;1999.90;999.90;;;;;;;8.97;54.31;98124.38;5010445;28;20046;-66
2021/04/10 04:48:52;;;;;;;1999.90;999.90;;;;;;;9.07;54.71;98128.78;5005661;28;20058;-66
2021/04/10 04:51:19;;;;;;;1999.90;999.90;;;;;;;9.08;54.40;98127.66;5008536;28;20053;-66
2021/04/10 04:53:45;;;;;;;1999.90;999.90;;;;;;;9.01;54.63;98132.84;5006831;28;20060;-66
2021/04/10 04:56:11;;;;;;;1999.90;999.90;;;;;;;9.03;54.91;98129.75;5006579;28;20054;-66
2021/04/10 04:58:38;;;;;;;1999.90;999.90;;;;;;;8.77;55.34;98123.03;5006109;28;20045;-65
2021/04/10 05:01:04;;;;;;;1999.90;999.90;;;;;;;8.85;55.25;98120.63;5010560;28;20560;-66
2021/04/10 05:03:30;;;;;;;1999.90;999.90;;;;;;;8.88;55.29;98119.97;5000012;28;20104;-66
2021/04/10 05:05:56;;;;;;;1999.90;999.90;;;;;;;8.79;55.63;98122.72;5007624;28;20053;-65
2021/04/10 05:08:22;;;;;;;1999.90;999.90;;;;;;;9.09;55.04;98129.28;5006553;28;20057;-65
2021/04/10 05:10:48;;;;;;;1999.90;999.90;;;;;;;9.43;54.17;98122.19;5009594;28;20088;-65
2021/04/10 05:13:14;;;;;;;1999.90;999.90;;;;;;;9.30;54.49;98139.69;5004527;28;20413;-66
2021/04/10 05:15:41;;;;;;;1999.90;999.90;;;;;;;9.41;54.39;98134.66;5009054;28;20382;-66
2021/04/10 05:18:07;;;;;;;1999.90;999.90;;;;;;;9.12;55.28;98141.63;5001601;28;20049;-65
2021/04/10 05:20:33;;;;;;;1999.90;999.90;;;;;;;9.19;55.24;98143.91;5007863;28;20089;-65
2021/04/10 05:23:00;;;;;;;1999.90;999.90;;;;;;;9.74;54.17;98148.03;5005994;28;20511;-65
2021/04/10 05:25:26;;;;;;;1999.90;999.90;;;;;;;9.92;53.60;98148.84;5002917;28;20038;-65
2021/04/10 05:27:52;;;;;;;1999.90;999.90;;;;;;;10.03;53.72;98158.38;5010096;28;20505;-66
2021/04/10 05:30:20;;;;;;;1999.90;999.90;;;;;;;9.61;54.58;98155.31;5004844;28;20089;-66
2021/04/10 05:32:46;;;;;;;1999.90;999.90;;;;;;;9.82;54.10;98147.19;5008822;28;20057;-66
2021/04/10 05:35:15;;;;;;;1999.90;999.90;;;;;;;9.83;54.37;98152.41;5004622;28;20496;-65
2021/04/10 05:37:42;;;;;;;1999.90;999.90;;;;;;;9.71;55.21;98149.47;5005183;28;20053;-65
2021/04/10 05:40:09;;;;;;;1999.90;999.90;;;;;;;9.60;55.49;98146.25;5007048;28;20046;-66
2021/04/10 05:42:35;;;;;;;1999.90;999.90;;;;;;;9.82;55.23;98156.28;5006172;28;20064;-65
2021/04/10 05:45:02;;;;;;;1999.90;999.90;;;;;;;9.72;56.40;98159.41;5007409;28;20511;-66
2021/04/10 05:47:28;;;;;;;1999.90;999.90;;;;;;;9.87;55.68;98158.91;5004281;28;20489;-65
2021/04/10 05:49:54;;;;;;;1999.90;999.90;;;;;;;9.95;55.67;98165.56;4995835;28;20568;-66
2021/04/10 05:52:21;;;;;;;1999.90;999.90;;;;;;;10.17;55.28;98172.84;5036797;28;20057;-66
2021/04/10 05:54:47;;;;;;;1999.90;999.90;;;;;;;10.57;54.00;98158.81;5009077;28;20050;-66
2021/04/10 05:57:13;;;;;;;1999.90;999.90;;;;;;;10.86;52.94;98171.03;5000885;28;20101;-66
2021/04/10 05:59:39;;;;;;;1999.90;999.90;;;;;;;10.77;53.34;98177.78;5006161;28;20050;-66
2021/04/10 06:02:06;;;;;;;1999.90;999.90;;;;;;;11.08;52.79;98183.00;5003616;28;20097;-66
2021/04/10 06:04:34;;;;;;;1999.90;999.90;;;;;;;10.82;53.09;98181.16;5010111;28;20093;-66
2021/04/10 06:07:00;;;;;;;1999.90;999.90;;;;;;;11.04;53.11;98182.03;5005357;28;20103;-66
2021/04/10 06:09:26;;;;;;;1999.90;999.90;;;;;;;10.85;54.14;98174.97;5006131;28;20054;-66
2021/04/10 06:11:53;;;;;;;1999.90;999.90;;;;;;;11.20;53.25;98172.03;5002590;28;20061;-65
2021/04/10 06:14:20;;;;;;;1999.90;999.90;;;;;;;11.02;53.55;98176.03;5008383;28;20113;-64
2021/04/10 06:16:50;;;;;;;1999.90;999.90;;;;;;;10.84;53.79;98178.88;5008943;28;20099;-65
2021/04/10 06:19:17;;;;;;;1999.90;999.90;;;;;;;10.73;53.71;98177.59;5003713;28;20054;-64
2021/04/10 06:21:44;;;;;;;1999.90;999.90;;;;;;;10.43;54.25;98173.97;5006697;28;20045;-65
2021/04/10 06:24:13;;;;;;;1999.90;999.90;;;;;;;10.26;55.07;98167.31;5002310;28;20092;-65
2021/04/10 06:26:40;;;;;;;1999.90;999.90;;;;;;;11.32;53.28;98170.50;4999010;28;20041;-64
2021/04/10 06:29:07;;;;;;;1999.90;999.90;;;;;;;11.14;52.85;98173.38;5003733;28;20513;-66
2021/04/10 06:31:34;;;;;;;1999.90;999.90;;;;;;;11.24;52.55;98167.44;5007234;28;20046;-66
2021/04/10 06:34:00;;;;;;;1999.90;999.90;;;;;;;11.74;52.44;98170.53;5008626;28;20136;-66
2021/04/10 06:36:27;;;;;;;1999.90;999.90;;;;;;;11.79;51.29;98165.59;5003031;28;20552;-66
2021/04/10 06:38:54;;;;;;;1999.90;999.90;;;;;;;11.79;51.69;98167.56;5007647;28;20049;-65
2021/04/10 06:41:21;;;;;;;1999.90;999.90;;;;;;;11.76;51.28;98168.22;5004707;28;20046;-66
2021/04/10 06:43:48;;;;;;;1999.90;999.90;;;;;;;12.56;49.98;98180.25;5011548;28;20046;-64
2021/04/10 06:46:14;;;;;;;1999.90;999.90;;;;;;;12.85;48.82;98180.06;5002705;28;20042;-65
2021/04/10 06:48:43;;;;;;;1999.90;999.90;;;;;;;13.13;48.41;98179.41;5007120;28;20116;-65
2021/04/10 06:51:12;;;;;;;1999.90;999.90;;;;;;;13.43;47.98;98170.03;5002449;28;20092;-66
2021/04/10 06:53:42;;;;;;;1999.90;999.90;;;;;;;13.20;48.43;98173.25;5010587;28;20064;-66
2021/04/10 06:56:10;;;;;;;1999.90;999.90;;;;;;;13.72;46.55;98177.28;5033795;28;20121;-66
2021/04/10 06:58:40;;;;;;;1999.90;999.90;;;;;;;13.31;47.00;98184.69;5009573;28;20042;-66
2021/04/10 07:01:07;;;;;;;1999.90;999.90;;;;;;;13.36;47.50;98179.75;5003411;28;20112;-66
2021/04/10 07:03:34;;;;;;;1999.90;999.90;;;;;;;13.29;47.60;98178.69;5002245;28;20505;-66
2021/04/10 07:06:01;;;;;;;1999.90;999.90;;;;;;;13.44;47.70;98180.00;5005461;28;20053;-66
2021/04/10 07:08:27;;;;;;;1999.90;999.90;;;;;;;13.57;46.20;98185.16;5003506;28;20046;-66
2021/04/10 07:10:55;;;;;;;1999.90;999.90;;;;;;;13.48;46.83;98180.91;5007004;28;20465;-66
2021/04/10 07:13:21;;;;;;;1999.90;999.90;;;;;;;14.12;45.95;98184.81;5003536;28;20046;-64
2021/04/10 07:15:47;;;;;;;1999.90;999.90;;;;;;;13.60;45.64;98189.22;5006289;28;20042;-66
2021/04/10 07:18:13;;;;;;;1999.90;999.90;;;;;;;13.83;46.49;98189.53;5003664;28;20543;-63
2021/04/10 07:20:40;;;;;;;1999.90;999.90;;;;;;;14.63;44.66;98198.16;5005372;28;20108;-64
2021/04/10 07:23:12;;;;;;;1999.90;999.90;;;;;;;14.32;44.75;98187.72;5004285;28;20093;-64
2021/04/10 07:25:41;;;;;;;1999.90;999.90;;;;;;;14.86;43.32;98183.66;5006041;28;20539;-65
2021/04/10 07:28:40;;;;;;;1999.90;999.90;;;;;;;14.85;42.91;98195.94;5002943;28;20084;-64
2021/04/10 07:31:09;;;;;;;1999.90;999.90;;;;;;;14.65;44.57;98198.63;5011259;28;20057;-65
2021/04/10 07:33:38;;;;;;;1999.90;999.90;;;;;;;14.55;43.94;98201.88;5002270;28;20469;-64
2021/04/10 07:36:09;;;;;;;1999.90;999.90;;;;;;;14.34;43.89;98202.91;5000540;28;20085;-66
2021/04/10 07:38:38;;;;;;;1999.90;999.90;;;;;;;14.35;44.85;98201.75;4997976;28;20124;-64
2021/04/10 07:41:15;;;;;;;1999.90;999.90;;;;;;;15.13;43.47;98193.88;5005080;28;20481;-64
2021/04/10 07:43:43;;;;;;;1999.90;999.90;;;;;;;15.26;43.21;98185.44;5009584;28;20057;-66
2021/04/10 07:46:18;;;;;;;1999.90;999.90;;;;;;;15.03;42.93;98194.41;5009113;28;20103;-66
2021/04/10 07:49:11;;;;;;;1999.90;999.90;;;;;;;14.69;44.47;98199.50;5006833;28;20569;-66
2021/04/10 07:51:59;;;;;;;1999.90;999.90;;;;;;;14.28;44.66;98196.00;5007878;28;20050;-63
2021/04/10 07:54:29;;;;;;;1999.90;999.90;;;;;;;13.86;45.33;98194.38;5004944;28;20053;-64
2021/04/10 07:57:02;;;;;;;1999.90;999.90;;;;;;;13.72;45.05;98194.75;5004705;28;20100;-64
2021/04/10 07:59:32;;;;;;;1999.90;999.90;;;;;;;14.59;44.33;98191.69;5006024;28;20176;-65
2021/04/10 08:02:10;;;;;;;1999.90;999.90;;;;;;;14.44;43.58;98194.06;5009177;28;20111;-65
2021/04/10 08:04:36;;;;;;;1999.90;999.90;;;;;;;15.19;42.79;98185.28;5009705;28;20070;-65
2021/04/10 08:07:03;;;;;;;1999.90;999.90;;;;;;;15.55;42.14;98191.69;5008291;28;20058;-65
2021/04/10 08:09:37;;;;;;;1999.90;999.90;;;;;;;15.90;41.46;98190.88;5011896;28;20055;-65
2021/04/10 08:12:11;;;;;;;1999.90;999.90;;;;;;;15.70;41.96;98204.75;5007955;28;20057;-65
2021/04/10 08:14:44;;;;;;;1999.90;999.90;;;;;;;15.59;41.47;98195.38;5004377;28;20073;-65
2021/04/10 08:17:30;;;;;;;1999.90;999.90;;;;;;;15.69;41.38;98200.38;5006348;28;20038;-65
2021/04/10 08:20:15;;;;;;;1999.90;999.90;;;;;;;14.86;42.85;98194.78;5008624;28;20049;-65
2021/04/10 08:22:41;;;;;;;1999.90;999.90;;;;;;;15.28;43.00;98195.03;5012950;28;20095;-65
2021/04/10 08:25:10;;;;;;;1999.90;999.90;;;;;;;15.18;42.27;98192.00;5004619;28;20045;-65
2021/04/10 08:27:38;;;;;;;1999.90;999.90;;;;;;;15.07;42.10;98186.97;5001744;28;20050;-66
2021/04/10 08:30:06;;;;;;;1999.90;999.90;;;;;;;14.66;43.13;98191.06;5007443;28;20100;-65
2021/04/10 08:32:32;;;;;;;1999.90;999.90;;;;;;;14.68;44.13;98183.16;5006285;28;20081;-66
2021/04/10 08:34:59;;;;;;;1999.90;999.90;;;;;;;15.28;43.07;98180.31;5005699;28;20046;-66
2021/04/10 08:37:27;;;;;;;1999.90;999.90;;;;;;;16.14;41.96;98176.66;5006820;28;20076;-66
2021/04/10 08:39:56;;;;;;;1999.90;999.90;;;;;;;16.73;39.93;98174.63;5008512;28;20057;-66
2021/04/10 08:42:24;;;;;;;1999.90;999.90;;;;;;;17.00;39.99;98182.28;5004699;28;20461;-66
2021/04/10 08:44:51;;;;;;;1999.90;999.90;;;;;;;17.66;37.57;98176.53;5006589;28;20457;-67
2021/04/10 08:47:18;;;;;;;1999.90;999.90;;;;;;;18.13;38.21;98178.00;5010925;28;20481;-66
2021/04/10 08:49:48;;;;;;;1999.90;999.90;;;;;;;18.47;35.78;98166.78;5006401;28;20050;-66
2021/04/10 08:52:28;;;;;;;1999.90;999.90;;;;;;;18.47;36.30;98175.19;5009687;28;20420;-66
2021/04/10 08:54:57;;;;;;;1999.90;999.90;;;;;;;18.27;36.53;98169.78;5003414;28;20046;-66
2021/04/10 08:57:36;;;;;;;1999.90;999.90;;;;;;;18.89;36.45;98179.69;5012497;28;20088;-65
2021/04/10 09:00:16;;;;;;;1999.90;999.90;;;;;;;17.88;36.19;98172.84;5001722;28;20050;-66
2021/04/10 09:02:56;;;;;;;1999.90;999.90;;;;;;;17.27;37.55;98166.38;4995972;28;20050;-65
2021/04/10 09:05:24;;;;;;;1999.90;999.90;;;;;;;18.33;37.11;98170.25;5003543;28;20058;-66
2021/04/10 09:07:50;;;;;;;1999.90;999.90;;;;;;;17.57;35.79;98166.44;5004846;28;20045;-65
2021/04/10 09:10:39;;;;;;;1999.90;999.90;;;;;;;17.41;36.05;98163.00;5005577;28;20447;-66
2021/04/10 09:13:05;;;;;;;1999.90;999.90;;;;;;;17.23;36.06;98159.94;5000460;28;20124;-66
2021/04/10 09:15:34;;;;;;;1999.90;999.90;;;;;;;18.22;36.28;98170.13;5005645;28;20512;-66
2021/04/10 09:18:02;;;;;;;1999.90;999.90;;;;;;;18.28;34.39;98162.19;5003691;28;20056;-65
2021/04/10 09:20:44;;;;;;;1999.90;999.90;;;;;;;17.00;35.43;98171.09;5004081;28;20046;-66
2021/04/10 09:23:31;;;;;;;1999.90;999.90;;;;;;;17.38;36.48;98166.53;5003774;28;20061;-66
2021/04/10 09:26:12;;;;;;;1999.90;999.90;;;;;;;17.70;34.26;98166.19;5002596;28;20049;-65
2021/04/10 09:28:54;;;;;;;1999.90;999.90;;;;;;;16.58;35.88;98175.53;5008270;28;20500;-66
2021/04/10 09:31:41;;;;;;;1999.90;999.90;;;;;;;16.70;34.16;98172.59;5001774;28;20053;-65
2021/04/10 09:34:46;;;;;;;1999.90;999.90;;;;;;;16.50;35.00;98169.00;4997827;28;20108;-65
2021/04/10 09:37:32;;;;;;;1999.90;999.90;;;;;;;16.89;34.94;98173.72;5001367;28;20077;-64
2021/04/10 09:40:05;;;;;;;1999.90;999.90;;;;;;;17.47;33.54;98169.88;4998995;28;20049;-64
2021/04/10 09:42:34;;;;;;;1999.90;999.90;;;;;;;17.69;32.47;98165.41;5035039;28;20236;-64
2021/04/10 09:45:31;;;;;;;1999.90;999.90;;;;;;;18.39;32.78;98167.91;5003264;28;20050;-65
2021/04/10 09:48:01;;;;;;;1999.90;999.90;;;;;;;17.98;34.19;98170.59;5002483;28;20409;-65
2021/04/10 09:50:28;;;;;;;1999.90;999.90;;;;;;;18.20;33.50;98171.69;5002709;28;20089;-65
2021/04/10 09:52:58;;;;;;;1999.90;999.90;;;;;;;18.63;33.37;98172.97;5002263;28;20100;-65
2021/04/10 09:55:28;;;;;;;1999.90;999.90;;;;;;;19.12;31.75;98175.88;5003352;28;20149;-65
2021/04/10 09:57:58;;;;;;;1999.90;999.90;;;;;;;18.66;33.18;98172.19;4995243;28;20058;-65
2021/04/10 10:00:28;;;;;;;1999.90;999.90;;;;;;;18.63;31.91;98172.19;5003576;28;20058;-66
2021/04/10 10:02:56;;;;;;;1999.90;999.90;;;;;;;18.39;32.46;98176.31;5002845;28;20085;-66
2021/04/10 10:05:23;;;;;;;1999.90;999.90;;;;;;;18.89;32.91;98185.28;5001362;28;20108;-65
2021/04/10 10:07:50;;;;;;;1999.90;999.90;;;;;;;18.38;33.00;98174.69;5002485;28;20064;-66
2021/04/10 10:10:17;;;;;;;1999.90;999.90;;;;;;;18.64;32.58;98171.78;5001993;28;20463;-66
2021/04/10 10:12:43;;;;;;;1999.90;999.90;;;;;;;18.43;32.78;98180.75;5037704;28;20049;-65
2021/04/10 10:15:25;;;;;;;1999.90;999.90;;;;;;;18.74;34.01;98170.31;4998646;28;20505;-65
2021/04/10 10:17:51;;;;;;;1999.90;999.90;;;;;;;18.50;32.65;98179.22;5003200;28;20085;-65
2021/04/10 10:20:18;;;;;;;1999.90;999.90;;;;;;;17.91;32.80;98171.34;5005207;28;20057;-66
2021/04/10 10:22:44;;;;;;;1999.90;999.90;;;;;;;17.27;34.84;98174.75;5000822;28;20517;-65
2021/04/10 10:25:11;;;;;;;1999.90;999.90;;;;;;;16.96;34.54;98173.84;4999902;28;20058;-65
2021/04/10 10:27:40;;;;;;;1999.90;999.90;;;;;;;17.77;34.41;98180.28;4997968;28;20465;-64
2021/04/10 10:30:26;;;;;;;1999.90;999.90;;;;;;;18.29;33.72;98173.00;5007544;28;20141;-65
2021/04/10 10:32:52;;;;;;;1999.90;999.90;;;;;;;18.20;33.23;98174.50;5002206;28;20050;-65
2021/04/10 10:35:19;;;;;;;1999.90;999.90;;;;;;;18.12;33.05;98182.78;5004148;28;20053;-65
2021/04/10 10:37:47;;;;;;;1999.90;999.90;;;;;;;18.69;32.94;98178.25;5003375;28;20100;-66
2021/04/10 10:40:25;;;;;;;1999.90;999.90;;;;;;;20.15;32.09;98185.38;5006132;28;20085;-66
2021/04/10 10:42:57;;;;;;;1999.90;999.90;;;;;;;20.29;31.48;98177.03;5002915;28;20136;-66
2021/04/10 10:45:40;;;;;;;1999.90;999.90;;;;;;;20.14;29.25;98166.94;4996932;28;20061;-65
2021/04/10 10:48:36;;;;;;;1999.90;999.90;;;;;;;20.79;30.12;98158.75;5010667;28;20077;-66
2021/04/10 10:51:07;;;;;;;1999.90;999.90;;;;;;;20.19;30.15;98167.34;4994540;28;20149;-65
2021/04/10 10:53:44;;;;;;;1999.90;999.90;;;;;;;19.76;30.21;98174.72;4997525;28;20057;-66
2021/04/10 10:56:12;;;;;;;1999.90;999.90;;;;;;;18.87;30.69;98170.84;5004217;28;20046;-65
2021/04/10 10:58:41;;;;;;;1999.90;999.90;;;;;;;18.86;31.52;98177.66;4998846;28;20049;-66
2021/04/10 11:01:21;;;;;;;1999.90;999.90;;;;;;;19.51;31.31;98175.38;5031933;28;20453;-65
2021/04/10 11:03:53;;;;;;;1999.90;999.90;;;;;;;19.47;30.76;98172.56;4997668;28;20050;-65
2021/04/10 11:06:24;;;;;;;1999.90;999.90;;;;;;;19.03;30.41;98183.81;5002401;28;20053;-65
2021/04/10 11:08:59;;;;;;;1999.90;999.90;;;;;;;19.00;30.21;98183.38;5003340;28;20397;-65